createdAt,value
2019-06-20T00:00:44.559Z,82.20
2019-06-20T00:03:13.251Z,82.30
2019-06-20T00:05:41.776Z,82.70
2019-06-20T00:08:10.935Z,82.50
2019-06-20T00:10:39.429Z,82.50
2019-06-20T00:13:07.666Z,82.50
2019-06-20T00:15:38.181Z,82.80
2019-06-20T00:18:06.650Z,82.80
2019-06-20T00:20:35.053Z,82.20
2019-06-20T00:23:03.413Z,81.20
2019-06-20T00:25:31.964Z,81.50
2019-06-20T00:28:00.252Z,81.50
2019-06-20T00:30:28.524Z,81.80
2019-06-20T00:32:56.932Z,82.10
2019-06-20T00:35:25.227Z,82.00
2019-06-20T00:37:53.624Z,81.80
2019-06-20T00:40:22.192Z,82.10
2019-06-20T00:42:50.563Z,82.60
2019-06-20T00:45:19.457Z,83.30
2019-06-20T00:47:48.056Z,83.20
2019-06-20T00:50:16.463Z,84.00
2019-06-20T00:52:44.751Z,84.20
2019-06-20T00:55:13.450Z,84.60
2019-06-20T00:57:42.023Z,84.20
2019-06-20T01:00:12.394Z,83.50
2019-06-20T01:02:40.909Z,84.10
2019-06-20T01:05:09.789Z,84.30
2019-06-20T01:07:38.159Z,85.10
2019-06-20T01:10:07.427Z,85.00
2019-06-20T01:12:35.817Z,85.20
2019-06-20T01:15:05.897Z,86.40
2019-06-20T01:17:34.334Z,86.10
2019-06-20T01:20:03.462Z,86.60
2019-06-20T01:22:32.019Z,87.20
2019-06-20T01:25:00.354Z,87.10
2019-06-20T01:27:28.739Z,87.50
2019-06-20T01:29:56.983Z,88.60
2019-06-20T01:32:25.346Z,89.70
2019-06-20T01:34:53.548Z,90.60
2019-06-20T01:37:21.781Z,91.80
2019-06-20T01:39:50.162Z,92.00
2019-06-20T01:42:18.374Z,92.10
2019-06-20T01:44:46.697Z,92.00
2019-06-20T01:47:15.129Z,91.90
2019-06-20T01:49:43.339Z,91.50
2019-06-20T01:52:11.671Z,91.00
2019-06-20T01:54:39.947Z,90.70
2019-06-20T01:57:08.277Z,90.70
2019-06-20T01:59:36.541Z,90.60
2019-06-20T02:02:04.909Z,89.90
2019-06-20T02:04:33.112Z,90.10
2019-06-20T02:07:01.436Z,90.50
2019-06-20T02:09:29.805Z,91.10
2019-06-20T02:11:58.011Z,91.00
2019-06-20T02:14:26.278Z,91.10
2019-06-20T02:16:54.544Z,91.40
2019-06-20T02:19:22.851Z,91.30
2019-06-20T02:21:51.087Z,91.60
2019-06-20T02:24:19.436Z,91.90
2019-06-20T02:26:47.661Z,92.50
2019-06-20T02:29:15.873Z,92.50
2019-06-20T02:31:44.374Z,92.50
2019-06-20T02:34:12.602Z,91.70
2019-06-20T02:36:40.935Z,90.90
2019-06-20T02:39:09.290Z,90.30
2019-06-20T02:41:37.797Z,90.20
2019-06-20T02:44:06.109Z,90.20
2019-06-20T02:46:34.424Z,89.70
2019-06-20T02:49:02.645Z,89.40
2019-06-20T02:51:31.228Z,89.20
2019-06-20T02:53:59.536Z,89.30
2019-06-20T02:56:27.746Z,89.50
2019-06-20T02:58:56.073Z,89.50
2019-06-20T03:01:25.611Z,89.10
2019-06-20T03:03:54.024Z,89.20
2019-06-20T03:06:22.274Z,89.90
2019-06-20T03:08:50.714Z,90.20
2019-06-20T03:11:19.014Z,90.30
2019-06-20T03:13:47.219Z,91.10
2019-06-20T03:16:15.608Z,91.90
2019-06-20T03:18:44.071Z,91.40
2019-06-20T03:21:12.273Z,91.70
2019-06-20T03:23:40.706Z,92.40
2019-06-20T03:26:09.036Z,92.70
2019-06-20T03:28:37.254Z,93.40
2019-06-20T03:31:05.628Z,94.00
2019-06-20T03:33:33.962Z,94.80
2019-06-20T03:36:02.222Z,94.90
2019-06-20T03:38:30.616Z,94.90
2019-06-20T03:40:58.906Z,94.80
2019-06-20T03:43:27.156Z,95.30
2019-06-20T03:45:58.296Z,95.10
2019-06-20T03:48:26.594Z,94.80
2019-06-20T03:50:54.789Z,94.80
2019-06-20T03:53:23.131Z,94.90
2019-06-20T03:55:51.394Z,95.00
2019-06-20T03:58:19.702Z,95.30
2019-06-20T04:00:48.064Z,95.30
2019-06-20T04:03:16.323Z,95.20
2019-06-20T04:05:44.586Z,95.40
2019-06-20T04:08:13.011Z,94.80
2019-06-20T04:10:41.208Z,94.10
2019-06-20T04:13:09.429Z,92.80
2019-06-20T04:15:37.787Z,91.60
2019-06-20T04:18:06.146Z,90.20
2019-06-20T04:20:34.476Z,88.40
2019-06-20T04:23:02.834Z,88.50
2019-06-20T04:25:31.455Z,88.40
2019-06-20T04:27:59.727Z,87.70
2019-06-20T04:30:28.071Z,88.20
2019-06-20T04:32:56.492Z,88.20
2019-06-20T04:35:24.768Z,88.40
2019-06-20T04:37:53.192Z,88.00
2019-06-20T04:40:22.146Z,86.80
2019-06-20T04:42:50.381Z,86.20
2019-06-20T04:45:35.441Z,83.60
2019-06-20T04:48:02.112Z,82.00
2019-06-20T04:50:30.327Z,81.20
2019-06-20T04:52:59.788Z,79.70
2019-06-20T04:55:28.029Z,78.50
2019-06-20T04:57:56.354Z,77.70
2019-06-20T05:00:24.849Z,76.90
2019-06-20T05:02:53.131Z,76.10
2019-06-20T05:05:21.458Z,73.90
2019-06-20T05:07:49.893Z,73.00
2019-06-20T05:10:18.111Z,74.70
2019-06-20T05:12:46.564Z,72.60
2019-06-20T05:15:15.202Z,72.40
2019-06-20T05:17:43.417Z,71.90
2019-06-20T05:20:11.810Z,71.10
2019-06-20T05:22:40.161Z,68.80
2019-06-20T05:25:08.691Z,70.50
2019-06-20T05:27:36.919Z,70.40
2019-06-20T05:30:08.283Z,69.90
2019-06-20T05:32:36.603Z,69.10
2019-06-20T05:35:06.997Z,68.60
2019-06-20T05:37:35.353Z,67.90
2019-06-20T05:40:04.926Z,67.10
2019-06-20T05:42:33.269Z,68.50
2019-06-20T05:45:01.672Z,66.90
2019-06-20T05:47:30.085Z,67.50
2019-06-20T05:49:58.297Z,65.80
2019-06-20T05:52:26.653Z,65.10
2019-06-20T05:54:55.004Z,64.90
2019-06-20T05:57:23.368Z,66.50
2019-06-20T05:59:51.735Z,65.70
2019-06-20T06:02:20.043Z,67.40
2019-06-20T06:04:48.351Z,66.60
2019-06-20T06:07:16.731Z,67.00
2019-06-20T06:09:45.689Z,65.00
2019-06-20T06:12:14.092Z,65.30
2019-06-20T06:14:42.452Z,65.70
2019-06-20T06:17:10.757Z,64.40
2019-06-20T06:19:39.096Z,63.60
2019-06-20T06:22:07.611Z,61.90
2019-06-20T06:24:36.190Z,61.90
2019-06-20T06:27:04.614Z,59.00
2019-06-20T06:29:33.070Z,57.80
2019-06-20T06:32:01.425Z,59.60
2019-06-20T06:34:29.742Z,60.90
2019-06-20T06:36:58.012Z,61.40
2019-06-20T06:39:26.271Z,63.00
2019-06-20T06:41:54.538Z,60.10
2019-06-20T06:44:22.784Z,55.90
2019-06-20T06:46:55.391Z,60.00
2019-06-20T06:49:21.214Z,59.60
2019-06-20T06:51:49.617Z,57.70
2019-06-20T06:54:18.226Z,56.30
2019-06-20T06:56:46.557Z,57.10
2019-06-20T06:59:14.924Z,57.00
2019-06-20T07:01:43.205Z,55.20
2019-06-20T07:04:11.558Z,52.90
2019-06-20T07:06:39.898Z,53.50
2019-06-20T07:09:08.723Z,54.30
2019-06-20T07:11:37.229Z,51.70
2019-06-20T07:14:06.614Z,51.90
2019-06-20T07:16:34.952Z,51.80
2019-06-20T07:19:03.582Z,51.50
2019-06-20T07:21:32.039Z,50.10
2019-06-20T07:24:01.371Z,48.70
2019-06-20T07:26:29.963Z,48.70
2019-06-20T07:28:58.546Z,48.80
2019-06-20T07:31:26.864Z,48.00
2019-06-20T07:33:55.199Z,47.20
2019-06-20T07:36:23.671Z,46.30
2019-06-20T07:38:52.529Z,45.10
2019-06-20T07:41:21.226Z,44.80
2019-06-20T07:43:49.516Z,45.70
2019-06-20T07:46:17.854Z,45.90
2019-06-20T07:48:46.107Z,41.70
2019-06-20T07:51:14.476Z,42.10
2019-06-20T07:53:43.907Z,41.90
2019-06-20T07:56:12.251Z,36.60
2019-06-20T07:58:40.655Z,36.20
2019-06-20T08:01:09.007Z,37.00
2019-06-20T08:03:38.266Z,36.00
2019-06-20T08:06:06.829Z,36.30
2019-06-20T08:08:35.344Z,36.00
2019-06-20T08:11:03.709Z,34.80
2019-06-20T08:13:32.092Z,35.50
2019-06-20T08:16:03.692Z,35.60
2019-06-20T08:18:30.793Z,36.90
2019-06-20T08:20:59.191Z,35.90
2019-06-20T08:23:27.449Z,37.40
2019-06-20T08:25:57.158Z,38.20
2019-06-20T08:28:26.427Z,34.20
2019-06-20T08:30:56.052Z,33.80
2019-06-20T08:33:24.977Z,32.70
2019-06-20T08:35:53.576Z,33.30
2019-06-20T08:38:22.024Z,31.60
2019-06-20T08:40:50.388Z,29.80
2019-06-20T08:43:18.741Z,30.60
2019-06-20T08:45:47.211Z,29.60
2019-06-20T08:48:15.474Z,31.70
2019-06-20T08:50:43.871Z,31.50
2019-06-20T08:53:12.146Z,30.90
2019-06-20T08:55:40.494Z,30.20
2019-06-20T08:58:09.261Z,31.60
2019-06-20T09:00:38.251Z,31.20
2019-06-20T09:03:07.003Z,28.80
2019-06-20T09:05:36.001Z,30.80
2019-06-20T09:08:05.137Z,29.90
2019-06-20T09:10:37.657Z,29.40
2019-06-20T09:13:08.231Z,30.30
2019-06-20T09:15:36.761Z,25.70
2019-06-20T09:18:06.337Z,28.20
2019-06-20T09:20:35.119Z,26.20
2019-06-20T09:23:03.948Z,24.70
2019-06-20T09:25:32.330Z,25.70
2019-06-20T09:28:02.618Z,26.40
2019-06-20T09:30:31.691Z,25.60
2019-06-20T09:33:00.082Z,26.40
2019-06-20T09:35:29.442Z,26.10
2019-06-20T09:37:59.197Z,27.00
2019-06-20T09:40:28.228Z,26.90
2019-06-20T09:42:56.668Z,27.50
2019-06-20T09:45:25.155Z,26.30
2019-06-20T09:47:53.759Z,26.60
2019-06-20T09:50:22.800Z,26.00
2019-06-20T09:52:52.948Z,26.40
2019-06-20T09:55:21.546Z,26.50
2019-06-20T09:57:50.778Z,25.60
2019-06-20T10:00:23.367Z,26.90
2019-06-20T10:02:53.711Z,28.00
2019-06-20T10:05:22.188Z,26.80
2019-06-20T10:07:50.667Z,26.80
2019-06-20T10:10:19.719Z,27.00
2019-06-20T10:12:49.339Z,27.00
2019-06-20T10:15:24.383Z,26.80
2019-06-20T10:17:52.957Z,26.60
2019-06-20T10:20:23.058Z,24.80
2019-06-20T10:22:51.459Z,26.40
2019-06-20T10:25:19.950Z,25.00
2019-06-20T10:27:49.628Z,26.10
2019-06-20T10:30:19.336Z,26.00
2019-06-20T10:32:48.687Z,25.50
2019-06-20T10:35:17.741Z,21.80
2019-06-20T10:37:47.191Z,21.60
2019-06-20T10:40:18.904Z,20.70
2019-06-20T10:42:48.124Z,19.40
2019-06-20T10:45:18.418Z,16.80
2019-06-20T10:47:47.612Z,18.20
2019-06-20T10:50:17.773Z,19.00
2019-06-20T10:52:47.892Z,17.60
2019-06-20T10:55:17.340Z,15.40
2019-06-20T10:57:46.735Z,16.10
2019-06-20T11:00:30.184Z,18.20
2019-06-20T11:02:49.043Z,18.70
2019-06-20T11:05:17.840Z,18.90
2019-06-20T11:07:47.458Z,14.00
2019-06-20T11:10:16.586Z,16.00
2019-06-20T11:12:50.218Z,16.00
2019-06-20T11:15:16.458Z,16.80
2019-06-20T11:17:46.182Z,18.10
2019-06-20T11:20:15.038Z,18.00
2019-06-20T11:22:43.418Z,18.90
2019-06-20T11:25:12.489Z,15.40
2019-06-20T11:27:40.856Z,15.30
2019-06-20T11:30:11.617Z,15.10
2019-06-20T11:32:41.000Z,14.80
2019-06-20T11:35:10.009Z,15.70
2019-06-20T11:37:39.657Z,16.10
2019-06-20T11:40:08.590Z,15.70
2019-06-20T11:42:37.775Z,17.10
2019-06-20T11:45:08.112Z,16.00
2019-06-20T11:47:36.685Z,16.80
2019-06-20T11:50:07.361Z,16.90
2019-06-20T11:52:41.042Z,18.60
2019-06-20T11:55:07.986Z,18.30
2019-06-20T11:57:36.509Z,20.30
2019-06-20T12:00:06.197Z,20.20
2019-06-20T12:02:34.565Z,19.90
2019-06-20T12:05:05.157Z,19.20
2019-06-20T12:07:33.565Z,18.50
2019-06-20T12:10:12.612Z,17.90
2019-06-20T12:12:42.477Z,18.30
2019-06-20T12:15:16.894Z,18.20
2019-06-20T12:17:47.091Z,18.00
2019-06-20T12:20:19.322Z,17.40
2019-06-20T12:22:50.444Z,16.80
2019-06-20T12:25:18.609Z,17.90
2019-06-20T12:27:47.607Z,19.00
2019-06-20T12:30:16.751Z,18.20
2019-06-20T12:32:46.805Z,17.90
2019-06-20T12:35:15.437Z,18.00
2019-06-20T12:37:45.058Z,17.30
2019-06-20T12:40:16.001Z,15.60
2019-06-20T12:42:44.879Z,15.50
2019-06-20T12:45:15.412Z,17.00
2019-06-20T12:47:43.961Z,16.00
2019-06-20T12:50:14.959Z,15.50
2019-06-20T12:52:43.361Z,16.00
2019-06-20T12:55:12.131Z,17.00
2019-06-20T12:57:42.057Z,17.90
2019-06-20T13:00:11.639Z,18.10
2019-06-20T13:02:41.759Z,17.70
2019-06-20T13:05:10.981Z,17.50
2019-06-20T13:07:40.772Z,18.30
2019-06-20T13:10:11.198Z,17.60
2019-06-20T13:12:40.939Z,18.90
2019-06-20T13:15:11.955Z,16.70
2019-06-20T13:17:41.949Z,18.30
2019-06-20T13:20:11.495Z,18.50
2019-06-20T13:22:41.321Z,18.10
2019-06-20T13:25:10.245Z,16.80
2019-06-20T13:27:39.654Z,17.10
2019-06-20T13:30:10.328Z,16.60
2019-06-20T13:32:40.199Z,15.30
2019-06-20T13:35:10.896Z,16.50
2019-06-20T13:37:40.204Z,17.00
2019-06-20T13:40:10.296Z,16.80
2019-06-20T13:42:39.034Z,15.90
2019-06-20T13:45:22.489Z,16.40
2019-06-20T13:47:51.572Z,14.40
2019-06-20T13:50:20.676Z,15.20
2019-06-20T13:52:51.192Z,14.30
2019-06-20T13:55:19.526Z,14.70
2019-06-20T13:57:49.223Z,15.10
2019-06-20T14:00:18.736Z,16.00
2019-06-20T14:02:48.705Z,14.70
2019-06-20T14:05:17.503Z,16.30
2019-06-20T14:07:48.495Z,16.40
2019-06-20T14:10:16.818Z,15.90
2019-06-20T14:12:46.722Z,17.40
2019-06-20T14:15:16.087Z,16.90
2019-06-20T14:17:47.159Z,17.60
2019-06-20T14:20:17.009Z,18.00
2019-06-20T14:23:04.829Z,17.90
2019-06-20T14:25:34.312Z,17.30
2019-06-20T14:28:03.966Z,16.50
2019-06-20T14:30:32.362Z,16.10
2019-06-20T14:33:00.863Z,15.80
2019-06-20T14:35:29.137Z,15.80
2019-06-20T14:37:58.425Z,15.80
2019-06-20T14:40:26.904Z,15.50
2019-06-20T14:42:55.333Z,14.80
2019-06-20T14:45:24.416Z,14.40
2019-06-20T14:47:52.941Z,14.30
2019-06-20T14:50:22.531Z,14.70
2019-06-20T14:52:52.225Z,14.30
2019-06-20T14:55:21.322Z,14.40
2019-06-20T14:57:50.428Z,15.20
2019-06-20T15:00:20.031Z,14.70
2019-06-20T15:02:53.000Z,15.40
2019-06-20T15:05:19.890Z,14.60
2019-06-20T15:07:49.524Z,14.90
2019-06-20T15:10:18.415Z,15.00
2019-06-20T15:12:48.351Z,15.00
2019-06-20T15:15:17.921Z,14.60
2019-06-20T15:17:50.367Z,15.60
2019-06-20T15:20:18.678Z,15.60
2019-06-20T15:22:48.788Z,14.90
2019-06-20T15:25:18.234Z,14.90
2019-06-20T15:27:47.987Z,15.30
2019-06-20T15:30:18.384Z,15.90
2019-06-20T15:32:59.206Z,16.70
2019-06-20T15:35:17.037Z,16.10
2019-06-20T15:37:46.686Z,15.80
2019-06-20T15:40:17.213Z,16.10
2019-06-20T15:42:45.581Z,15.00
2019-06-20T15:45:14.966Z,15.10
2019-06-20T15:47:43.597Z,16.10
2019-06-20T15:50:14.122Z,16.50
2019-06-20T15:52:42.486Z,16.90
2019-06-20T15:55:11.347Z,17.60
2019-06-20T15:57:40.009Z,18.10
2019-06-20T16:00:09.102Z,17.90
2019-06-20T16:02:37.492Z,17.40
2019-06-20T16:05:06.236Z,17.40
2019-06-20T16:07:35.484Z,17.50
2019-06-20T16:10:04.416Z,16.40
2019-06-20T16:12:33.033Z,16.80
2019-06-20T16:15:01.291Z,15.70
2019-06-20T16:17:29.669Z,15.20
2019-06-20T16:19:58.061Z,15.40
2019-06-20T16:22:26.425Z,15.50
2019-06-20T16:24:54.699Z,16.20
2019-06-20T16:27:23.120Z,16.80
2019-06-20T16:29:52.376Z,16.10
2019-06-20T16:32:20.621Z,16.80
2019-06-20T16:34:49.011Z,17.10
2019-06-20T16:37:17.354Z,17.00
2019-06-20T16:39:45.603Z,17.20
2019-06-20T16:42:14.186Z,16.80
2019-06-20T16:44:42.555Z,17.80
2019-06-20T16:47:10.910Z,17.40
2019-06-20T16:49:39.390Z,17.50
2019-06-20T16:52:07.807Z,18.00
2019-06-20T16:54:36.223Z,18.60
2019-06-20T16:57:04.804Z,18.40
2019-06-20T16:59:33.069Z,18.70
2019-06-20T17:02:01.432Z,19.10
2019-06-20T17:04:31.269Z,19.50
2019-06-20T17:06:59.542Z,20.90
2019-06-20T17:09:27.806Z,20.30
2019-06-20T17:11:56.279Z,21.00
2019-06-20T17:14:24.575Z,21.30
2019-06-20T17:16:52.926Z,22.50
2019-06-20T17:19:21.415Z,21.90
2019-06-20T17:21:49.801Z,23.20
2019-06-20T17:24:19.271Z,23.60
2019-06-20T17:26:47.827Z,23.70
2019-06-20T17:29:16.096Z,24.80
2019-06-20T17:31:44.461Z,24.70
2019-06-20T17:34:12.974Z,24.70
2019-06-20T17:36:41.267Z,24.90
2019-06-20T17:39:09.714Z,25.20
2019-06-20T17:41:38.739Z,25.40
2019-06-20T17:44:08.527Z,25.60
2019-06-20T17:46:36.802Z,25.80
2019-06-20T17:49:05.128Z,25.80
2019-06-20T17:51:33.493Z,25.80
2019-06-20T17:54:02.026Z,25.60
2019-06-20T17:56:30.876Z,25.80
2019-06-20T17:58:59.390Z,26.00
2019-06-20T18:01:27.974Z,26.30
2019-06-20T18:04:04.723Z,26.60
2019-06-20T18:06:27.072Z,27.10
2019-06-20T18:08:55.556Z,27.40
2019-06-20T18:11:24.142Z,27.10
2019-06-20T18:13:52.698Z,27.30
2019-06-20T18:16:25.394Z,27.40
2019-06-20T18:18:51.817Z,27.60
2019-06-20T18:21:20.376Z,27.90
2019-06-20T18:23:48.809Z,28.00
2019-06-20T18:26:18.292Z,28.30
2019-06-20T18:28:46.922Z,28.80
2019-06-20T18:31:15.402Z,29.30
2019-06-20T18:33:44.374Z,29.60
2019-06-20T18:36:12.756Z,29.80
2019-06-20T18:38:41.838Z,29.80
2019-06-20T18:41:10.453Z,30.20
2019-06-20T18:43:38.823Z,30.20
2019-06-20T18:46:07.151Z,30.50
2019-06-20T18:48:35.546Z,30.40
2019-06-20T18:51:04.425Z,30.30
2019-06-20T18:53:32.822Z,30.10
2019-06-20T18:56:02.500Z,29.80
2019-06-20T18:58:31.029Z,30.00
2019-06-20T19:00:59.653Z,30.00
2019-06-20T19:03:28.147Z,30.20
2019-06-20T19:06:14.694Z,30.40
2019-06-20T19:08:43.234Z,30.50
2019-06-20T19:11:11.586Z,31.40
2019-06-20T19:13:39.956Z,32.20
2019-06-20T19:18:55.078Z,33.00
2019-06-20T19:21:23.515Z,33.00
2019-06-20T19:23:55.260Z,32.80
2019-06-20T19:26:22.200Z,32.60
2019-06-20T19:28:50.724Z,32.60
2019-06-20T19:31:20.584Z,32.30
2019-06-20T19:33:51.922Z,32.10
2019-06-20T19:36:19.385Z,31.90
2019-06-20T19:38:47.784Z,32.10
2019-06-20T19:41:16.354Z,32.50
2019-06-20T19:43:44.846Z,33.00
2019-06-20T19:46:13.377Z,33.60
2019-06-20T19:48:41.752Z,34.60
2019-06-20T19:51:10.474Z,35.00
2019-06-20T19:53:39.249Z,34.80
2019-06-20T19:56:07.841Z,35.90
2019-06-20T19:58:36.457Z,36.30
2019-06-20T20:01:04.891Z,35.90
2019-06-20T20:03:33.383Z,35.60
2019-06-20T20:06:01.894Z,34.90
2019-06-20T20:08:30.423Z,34.40
2019-06-20T20:10:58.830Z,34.90
2019-06-20T20:13:27.467Z,35.60
2019-06-20T20:15:56.046Z,35.00
2019-06-20T20:18:24.610Z,36.80
2019-06-20T20:20:53.269Z,37.40
2019-06-20T20:23:21.749Z,39.40
2019-06-20T20:25:50.250Z,40.10
2019-06-20T20:28:18.951Z,40.60
2019-06-20T20:30:47.704Z,41.80
2019-06-20T20:33:16.070Z,41.30
2019-06-20T20:35:44.981Z,41.10
2019-06-20T20:38:13.467Z,40.70
2019-06-20T20:40:43.032Z,40.70
2019-06-20T20:43:22.242Z,40.00
2019-06-20T20:45:51.619Z,39.80
2019-06-20T20:48:20.296Z,40.10
2019-06-20T20:50:48.845Z,41.70
2019-06-20T20:53:17.217Z,42.60
2019-06-20T20:55:46.592Z,43.80
2019-06-20T20:58:15.124Z,45.40
2019-06-20T21:01:13.297Z,44.90
2019-06-20T21:03:41.799Z,44.70
2019-06-20T21:06:10.437Z,43.70
2019-06-20T21:08:38.844Z,43.80
2019-06-20T21:11:07.356Z,45.50
2019-06-20T21:13:35.716Z,45.50
2019-06-20T21:16:04.361Z,46.50
2019-06-20T21:18:32.813Z,46.70
2019-06-20T21:21:01.160Z,47.10
2019-06-20T21:23:30.586Z,48.00
2019-06-20T21:25:59.086Z,48.80
2019-06-20T21:28:27.464Z,48.80
2019-06-20T21:30:55.741Z,49.80
2019-06-20T21:33:24.287Z,50.30
2019-06-20T21:36:07.218Z,50.80
2019-06-20T21:38:23.874Z,51.90
2019-06-20T21:40:52.288Z,52.70
2019-06-20T21:43:20.875Z,52.60
2019-06-20T21:45:49.436Z,54.30
2019-06-20T21:48:17.911Z,54.50
2019-06-20T21:50:46.376Z,55.10
2019-06-20T21:53:14.891Z,55.40
2019-06-20T21:55:44.354Z,55.70
2019-06-20T21:58:12.735Z,56.20
2019-06-20T22:00:47.491Z,56.50
2019-06-20T22:03:16.522Z,56.70
2019-06-20T22:05:45.183Z,57.00
2019-06-20T22:08:13.568Z,56.90
2019-06-20T22:10:42.098Z,57.30
2019-06-20T22:13:10.472Z,57.70
2019-06-20T22:15:38.863Z,58.20
2019-06-20T22:18:07.366Z,58.50
2019-06-20T22:20:35.816Z,59.50
2019-06-20T22:23:04.656Z,60.70
2019-06-20T22:25:33.049Z,61.80
2019-06-20T22:28:03.210Z,62.50
2019-06-20T22:30:52.636Z,63.20
2019-06-20T22:33:21.633Z,63.70
2019-06-20T22:35:49.931Z,63.20
2019-06-20T22:38:18.495Z,63.00
2019-06-20T22:40:46.935Z,63.70
2019-06-20T22:43:15.296Z,63.90
2019-06-20T22:45:44.839Z,64.20
2019-06-20T22:48:13.328Z,64.00
2019-06-20T22:50:42.656Z,63.70
2019-06-20T22:53:11.374Z,64.00
2019-06-20T22:55:39.770Z,63.30
2019-06-20T22:58:08.404Z,63.90
2019-06-20T23:00:38.502Z,63.60
2019-06-20T23:03:07.124Z,64.70
2019-06-20T23:05:35.728Z,65.20
2019-06-20T23:08:04.314Z,66.00
2019-06-20T23:10:33.867Z,66.50
2019-06-20T23:13:02.362Z,67.10
2019-06-20T23:15:30.903Z,68.00
2019-06-20T23:17:59.334Z,68.20
2019-06-20T23:20:27.716Z,68.50
2019-06-20T23:22:56.195Z,69.10
2019-06-20T23:25:24.756Z,69.40
2019-06-20T23:27:53.207Z,69.50
2019-06-20T23:30:23.919Z,69.50
2019-06-20T23:32:52.239Z,69.40
2019-06-20T23:35:20.631Z,69.30
2019-06-20T23:37:48.985Z,69.00
2019-06-20T23:40:17.513Z,68.80
2019-06-20T23:42:45.772Z,68.10
2019-06-20T23:45:15.099Z,68.40
2019-06-20T23:47:43.467Z,67.70
2019-06-20T23:50:17.911Z,68.40
2019-06-20T23:52:50.904Z,68.30
2019-06-20T23:55:19.359Z,67.60
2019-06-20T23:57:47.601Z,67.70
